首页
METAR-TAF:

METAR-TAF

机场 :

薩拉戈薩機場

萨拉戈萨, 西班牙

纬度: 41-40N, 经度: 001-01W, 海拔: 263米

当前天气观测

该预报发布于43分钟前的16:00 UTC
风速20节,风向,在东转东北东南之间变化
温度 36°C
湿度 21%
气压 1014 hPa
能见度10公里或以上
1500米以下无云,无积雨云

METAR: LEZG 261600Z 10020KT 060V130 CAVOK 36/10 Q1014

时间: 18:43 (16:43 UTC)

预报

该预报发布于5小时和43分钟前的11:00 UTC
预报有效从26日的 12点(UTC)到 27日的 12点(UTC)
风速16节,风向东转东南
能见度10公里或以上
1500米以下无云,无积雨云
短暂存在
从 26日的 12点(UTC)到 26日的 20点(UTC)
风速23节,风向东转东南,有时为33节阵风
成为
从 26日的 23点(UTC)到 27日的 01点(UTC)
风速6节,风向东转东南

TAF: LEZG 261100Z 2612/2712 11016KT CAVOK TX36/2615Z TN22/2706Z TEMPO 2612/2620 11023G33KT BECMG 2623/2701 12006KT

超过4000个机场的气象观测和天气预报(METAR&TAF报告)。

可查询的气象台以黄色和红色小点在地图上表示。

将鼠标移到小点上方,可查看气象台名称。

然后点击查看天气观测和预报。

如需切换地图:点击带黑十字的绿色按钮放大地图;点击带横线的绿色按钮缩小地图;或者点击绿色箭头查看邻近地区的地图。


METAR-TAF: